sensor_id;sensor_type;location;lat;lon;timestamp;temperature;humidity
14057;DHT22;7103;54.300;10.180;2023-06-14T00:02:04;15.30;1.00
14057;DHT22;7103;54.300;10.180;2023-06-14T00:04:35;15.30;1.00
14057;DHT22;7103;54.300;10.180;2023-06-14T00:07:02;15.30;1.00
14057;DHT22;7103;54.300;10.180;2023-06-14T00:09:29;15.30;1.00
14057;DHT22;7103;54.300;10.180;2023-06-14T00:11:56;15.30;1.00
14057;DHT22;7103;54.300;10.180;2023-06-14T00:14:23;15.20;1.00
14057;DHT22;7103;54.300;10.180;2023-06-14T00:16:50;15.20;1.00
14057;DHT22;7103;54.300;10.180;2023-06-14T00:19:19;15.20;1.00
14057;DHT22;7103;54.300;10.180;2023-06-14T00:21:46;15.30;1.00
14057;DHT22;7103;54.300;10.180;2023-06-14T00:24:14;15.20;1.00
14057;DHT22;7103;54.300;10.180;2023-06-14T00:26:41;15.20;1.00
14057;DHT22;7103;54.300;10.180;2023-06-14T00:29:08;15.30;1.00
14057;DHT22;7103;54.300;10.180;2023-06-14T00:31:35;15.30;1.00
14057;DHT22;7103;54.300;10.180;2023-06-14T00:34:02;15.10;1.00
14057;DHT22;7103;54.300;10.180;2023-06-14T00:36:29;15.00;1.00
14057;DHT22;7103;54.300;10.180;2023-06-14T00:38:56;14.90;1.00
14057;DHT22;7103;54.300;10.180;2023-06-14T00:41:23;14.90;1.00
14057;DHT22;7103;54.300;10.180;2023-06-14T00:43:50;14.90;1.00
14057;DHT22;7103;54.300;10.180;2023-06-14T00:46:18;14.90;1.00
14057;DHT22;7103;54.300;10.180;2023-06-14T00:48:47;14.90;1.00
14057;DHT22;7103;54.300;10.180;2023-06-14T00:51:14;14.90;1.00
14057;DHT22;7103;54.300;10.180;2023-06-14T00:53:41;14.80;1.00
14057;DHT22;7103;54.300;10.180;2023-06-14T00:56:14;14.90;1.00
14057;DHT22;7103;54.300;10.180;2023-06-14T00:58:42;14.90;1.00
14057;DHT22;7103;54.300;10.180;2023-06-14T01:01:10;14.90;1.00
14057;DHT22;7103;54.300;10.180;2023-06-14T01:03:37;14.90;1.00
14057;DHT22;7103;54.300;10.180;2023-06-14T01:06:38;14.90;1.00
14057;DHT22;7103;54.300;10.180;2023-06-14T01:09:26;14.90;1.00
14057;DHT22;7103;54.300;10.180;2023-06-14T01:12:13;14.80;1.00
14057;DHT22;7103;54.300;10.180;2023-06-14T01:14:42;14.80;1.00
14057;DHT22;7103;54.300;10.180;2023-06-14T01:17:11;14.90;1.00
14057;DHT22;7103;54.300;10.180;2023-06-14T01:19:43;14.80;1.00
14057;DHT22;7103;54.300;10.180;2023-06-14T01:22:12;14.80;1.00
14057;DHT22;7103;54.300;10.180;2023-06-14T01:24:39;14.80;1.00
14057;DHT22;7103;54.300;10.180;2023-06-14T01:27:11;14.80;1.00
14057;DHT22;7103;54.300;10.180;2023-06-14T01:29:40;14.70;1.00
14057;DHT22;7103;54.300;10.180;2023-06-14T01:32:13;14.60;1.00
14057;DHT22;7103;54.300;10.180;2023-06-14T01:34:40;14.60;1.00
14057;DHT22;7103;54.300;10.180;2023-06-14T01:37:08;14.70;1.00
14057;DHT22;7103;54.300;10.180;2023-06-14T01:39:35;14.70;1.00
14057;DHT22;7103;54.300;10.180;2023-06-14T01:42:03;14.70;1.00
14057;DHT22;7103;54.300;10.180;2023-06-14T01:44:31;14.80;1.00
14057;DHT22;7103;54.300;10.180;2023-06-14T01:46:58;14.70;1.00
14057;DHT22;7103;54.300;10.180;2023-06-14T01:49:26;14.90;1.00
14057;DHT22;7103;54.300;10.180;2023-06-14T01:51:53;14.90;1.00
14057;DHT22;7103;54.300;10.180;2023-06-14T01:54:20;14.80;1.00
14057;DHT22;7103;54.300;10.180;2023-06-14T01:56:48;14.80;1.00
14057;DHT22;7103;54.300;10.180;2023-06-14T01:59:15;14.80;1.00
14057;DHT22;7103;54.300;10.180;2023-06-14T02:01:42;14.80;1.00
14057;DHT22;7103;54.300;10.180;2023-06-14T02:04:09;14.70;1.00
14057;DHT22;7103;54.300;10.180;2023-06-14T02:06:36;14.70;1.00
14057;DHT22;7103;54.300;10.180;2023-06-14T02:09:03;14.60;1.00
14057;DHT22;7103;54.300;10.180;2023-06-14T02:11:30;14.60;1.00
14057;DHT22;7103;54.300;10.180;2023-06-14T02:13:57;14.50;1.00
14057;DHT22;7103;54.300;10.180;2023-06-14T02:16:26;14.60;1.00
14057;DHT22;7103;54.300;10.180;2023-06-14T02:18:55;14.60;1.00
14057;DHT22;7103;54.300;10.180;2023-06-14T02:21:22;14.50;1.00
14057;DHT22;7103;54.300;10.180;2023-06-14T02:23:49;14.50;1.00
14057;DHT22;7103;54.300;10.180;2023-06-14T02:26:16;14.50;1.00
14057;DHT22;7103;54.300;10.180;2023-06-14T02:28:43;14.50;1.00
14057;DHT22;7103;54.300;10.180;2023-06-14T02:31:10;14.40;1.00
14057;DHT22;7103;54.300;10.180;2023-06-14T02:33:37;14.40;1.00
14057;DHT22;7103;54.300;10.180;2023-06-14T02:36:05;14.40;1.00
14057;DHT22;7103;54.300;10.180;2023-06-14T02:38:32;14.40;1.00
14057;DHT22;7103;54.300;10.180;2023-06-14T02:40:59;14.40;1.00
14057;DHT22;7103;54.300;10.180;2023-06-14T02:43:29;14.40;1.00
14057;DHT22;7103;54.300;10.180;2023-06-14T02:45:56;14.40;1.00
14057;DHT22;7103;54.300;10.180;2023-06-14T02:48:23;14.40;1.00
14057;DHT22;7103;54.300;10.180;2023-06-14T02:50:50;14.40;1.00
14057;DHT22;7103;54.300;10.180;2023-06-14T02:53:17;14.40;1.00
14057;DHT22;7103;54.300;10.180;2023-06-14T02:55:44;14.40;1.00
14057;DHT22;7103;54.300;10.180;2023-06-14T02:58:14;14.40;1.00
14057;DHT22;7103;54.300;10.180;2023-06-14T03:00:41;14.30;1.00
14057;DHT22;7103;54.300;10.180;2023-06-14T03:03:09;14.30;1.00
14057;DHT22;7103;54.300;10.180;2023-06-14T03:05:46;14.30;1.00
14057;DHT22;7103;54.300;10.180;2023-06-14T03:08:14;14.20;1.00
14057;DHT22;7103;54.300;10.180;2023-06-14T03:10:43;14.20;1.00
14057;DHT22;7103;54.300;10.180;2023-06-14T03:13:10;14.20;1.00
14057;DHT22;7103;54.300;10.180;2023-06-14T03:15:38;14.20;1.00
14057;DHT22;7103;54.300;10.180;2023-06-14T03:18:07;14.20;1.00
14057;DHT22;7103;54.300;10.180;2023-06-14T03:20:38;14.20;1.00
14057;DHT22;7103;54.300;10.180;2023-06-14T03:23:05;14.20;1.00
14057;DHT22;7103;54.300;10.180;2023-06-14T03:25:33;14.20;1.00
14057;DHT22;7103;54.300;10.180;2023-06-14T03:28:02;14.20;1.00
14057;DHT22;7103;54.300;10.180;2023-06-14T03:30:30;14.20;1.00
14057;DHT22;7103;54.300;10.180;2023-06-14T03:32:57;14.20;1.00
14057;DHT22;7103;54.300;10.180;2023-06-14T03:35:28;14.20;1.00
14057;DHT22;7103;54.300;10.180;2023-06-14T03:37:55;14.10;1.00
14057;DHT22;7103;54.300;10.180;2023-06-14T03:40:22;14.00;1.00
14057;DHT22;7103;54.300;10.180;2023-06-14T03:42:54;14.00;1.00
14057;DHT22;7103;54.300;10.180;2023-06-14T03:45:21;14.00;1.00
14057;DHT22;7103;54.300;10.180;2023-06-14T03:47:48;14.00;1.00
14057;DHT22;7103;54.300;10.180;2023-06-14T03:50:17;14.00;1.00
14057;DHT22;7103;54.300;10.180;2023-06-14T03:52:47;14.00;1.00
14057;DHT22;7103;54.300;10.180;2023-06-14T03:55:15;14.00;1.00
14057;DHT22;7103;54.300;10.180;2023-06-14T03:57:45;14.10;1.00
14057;DHT22;7103;54.300;10.180;2023-06-14T04:00:13;14.10;1.00
14057;DHT22;7103;54.300;10.180;2023-06-14T04:02:40;14.20;1.00
14057;DHT22;7103;54.300;10.180;2023-06-14T04:05:07;14.30;1.00
14057;DHT22;7103;54.300;10.180;2023-06-14T04:07:35;14.30;1.00
14057;DHT22;7103;54.300;10.180;2023-06-14T04:10:07;14.30;1.00
14057;DHT22;7103;54.300;10.180;2023-06-14T04:12:37;14.40;1.00
14057;DHT22;7103;54.300;10.180;2023-06-14T04:15:04;14.40;1.00
14057;DHT22;7103;54.300;10.180;2023-06-14T04:17:45;14.40;1.00
14057;DHT22;7103;54.300;10.180;2023-06-14T04:20:13;14.70;1.00
14057;DHT22;7103;54.300;10.180;2023-06-14T04:22:40;14.70;1.00
14057;DHT22;7103;54.300;10.180;2023-06-14T04:25:08;15.10;1.00
14057;DHT22;7103;54.300;10.180;2023-06-14T04:27:35;15.70;1.00
14057;DHT22;7103;54.300;10.180;2023-06-14T04:30:03;16.50;1.00
14057;DHT22;7103;54.300;10.180;2023-06-14T04:32:31;17.20;1.00
14057;DHT22;7103;54.300;10.180;2023-06-14T04:35:00;17.70;1.00
14057;DHT22;7103;54.300;10.180;2023-06-14T04:37:30;17.70;1.00
14057;DHT22;7103;54.300;10.180;2023-06-14T04:39:57;17.30;1.00
14057;DHT22;7103;54.300;10.180;2023-06-14T04:42:24;16.90;1.00
14057;DHT22;7103;54.300;10.180;2023-06-14T04:44:52;16.60;1.00
14057;DHT22;7103;54.300;10.180;2023-06-14T04:47:23;16.30;1.00
14057;DHT22;7103;54.300;10.180;2023-06-14T04:49:59;16.10;1.00
14057;DHT22;7103;54.300;10.180;2023-06-14T04:52:27;16.00;1.00
14057;DHT22;7103;54.300;10.180;2023-06-14T04:54:56;15.90;1.00
14057;DHT22;7103;54.300;10.180;2023-06-14T04:57:23;15.90;1.00
14057;DHT22;7103;54.300;10.180;2023-06-14T04:59:52;15.90;1.00
14057;DHT22;7103;54.300;10.180;2023-06-14T05:02:23;16.00;1.00
14057;DHT22;7103;54.300;10.180;2023-06-14T05:04:50;16.00;1.00
14057;DHT22;7103;54.300;10.180;2023-06-14T05:07:18;15.90;1.00
14057;DHT22;7103;54.300;10.180;2023-06-14T05:09:45;15.90;1.00
14057;DHT22;7103;54.300;10.180;2023-06-14T05:12:12;15.90;1.00
14057;DHT22;7103;54.300;10.180;2023-06-14T05:14:39;16.10;1.00
14057;DHT22;7103;54.300;10.180;2023-06-14T05:17:06;16.20;1.00
14057;DHT22;7103;54.300;10.180;2023-06-14T05:19:33;16.20;1.00
14057;DHT22;7103;54.300;10.180;2023-06-14T05:22:00;16.30;1.00
14057;DHT22;7103;54.300;10.180;2023-06-14T05:24:29;16.50;1.00
14057;DHT22;7103;54.300;10.180;2023-06-14T05:26:57;16.40;1.00
14057;DHT22;7103;54.300;10.180;2023-06-14T05:29:24;16.50;1.00
14057;DHT22;7103;54.300;10.180;2023-06-14T05:31:55;16.60;1.00
14057;DHT22;7103;54.300;10.180;2023-06-14T05:34:22;17.00;1.00
14057;DHT22;7103;54.300;10.180;2023-06-14T05:36:49;17.60;1.00
14057;DHT22;7103;54.300;10.180;2023-06-14T05:39:16;18.20;1.00
14057;DHT22;7103;54.300;10.180;2023-06-14T05:41:43;18.80;1.00
14057;DHT22;7103;54.300;10.180;2023-06-14T05:44:10;19.50;1.00
14057;DHT22;7103;54.300;10.180;2023-06-14T05:46:37;20.10;1.00
14057;DHT22;7103;54.300;10.180;2023-06-14T05:49:07;20.50;1.00
14057;DHT22;7103;54.300;10.180;2023-06-14T05:51:34;20.80;1.00
14057;DHT22;7103;54.300;10.180;2023-06-14T05:54:01;21.40;1.00
14057;DHT22;7103;54.300;10.180;2023-06-14T05:56:29;21.60;1.00
14057;DHT22;7103;54.300;10.180;2023-06-14T05:58:56;21.50;99.90
14057;DHT22;7103;54.300;10.180;2023-06-14T06:01:23;21.50;99.90
14057;DHT22;7103;54.300;10.180;2023-06-14T06:03:50;21.50;99.90
14057;DHT22;7103;54.300;10.180;2023-06-14T06:06:17;21.80;99.90
14057;DHT22;7103;54.300;10.180;2023-06-14T06:08:44;21.80;99.90
14057;DHT22;7103;54.300;10.180;2023-06-14T06:11:11;21.90;99.90
14057;DHT22;7103;54.300;10.180;2023-06-14T06:13:38;22.30;99.90
14057;DHT22;7103;54.300;10.180;2023-06-14T06:16:06;22.40;99.90
14057;DHT22;7103;54.300;10.180;2023-06-14T06:18:33;22.90;99.90
14057;DHT22;7103;54.300;10.180;2023-06-14T06:21:00;23.10;99.90
14057;DHT22;7103;54.300;10.180;2023-06-14T06:23:29;23.20;99.90
14057;DHT22;7103;54.300;10.180;2023-06-14T06:25:56;23.00;99.90
14057;DHT22;7103;54.300;10.180;2023-06-14T06:28:23;22.80;99.90
14057;DHT22;7103;54.300;10.180;2023-06-14T06:30:50;22.90;99.90
14057;DHT22;7103;54.300;10.180;2023-06-14T06:33:17;23.20;99.90
14057;DHT22;7103;54.300;10.180;2023-06-14T06:35:44;23.70;99.90
14057;DHT22;7103;54.300;10.180;2023-06-14T06:38:12;23.50;99.90
14057;DHT22;7103;54.300;10.180;2023-06-14T06:40:39;23.80;99.90
14057;DHT22;7103;54.300;10.180;2023-06-14T06:43:06;24.30;99.90
14057;DHT22;7103;54.300;10.180;2023-06-14T06:45:33;24.70;99.90
14057;DHT22;7103;54.300;10.180;2023-06-14T06:48:00;25.10;99.90
14057;DHT22;7103;54.300;10.180;2023-06-14T06:50:27;25.00;99.90
14057;DHT22;7103;54.300;10.180;2023-06-14T06:52:54;25.40;99.90
14057;DHT22;7103;54.300;10.180;2023-06-14T06:55:21;25.30;99.90
14057;DHT22;7103;54.300;10.180;2023-06-14T06:57:48;25.30;99.90
14057;DHT22;7103;54.300;10.180;2023-06-14T07:00:16;24.60;99.90
14057;DHT22;7103;54.300;10.180;2023-06-14T07:02:45;25.10;99.90
14057;DHT22;7103;54.300;10.180;2023-06-14T07:07:40;25.30;99.90
14057;DHT22;7103;54.300;10.180;2023-06-14T07:10:07;25.90;99.90
14057;DHT22;7103;54.300;10.180;2023-06-14T07:12:34;26.10;99.90
14057;DHT22;7103;54.300;10.180;2023-06-14T07:15:07;25.90;99.90
14057;DHT22;7103;54.300;10.180;2023-06-14T07:17:35;26.20;99.90
14057;DHT22;7103;54.300;10.180;2023-06-14T07:20:04;26.50;99.90
14057;DHT22;7103;54.300;10.180;2023-06-14T07:22:41;26.40;99.90
14057;DHT22;7103;54.300;10.180;2023-06-14T07:25:12;26.70;99.90
14057;DHT22;7103;54.300;10.180;2023-06-14T07:27:44;27.00;99.90
14057;DHT22;7103;54.300;10.180;2023-06-14T07:30:14;27.70;99.90
14057;DHT22;7103;54.300;10.180;2023-06-14T07:32:41;28.10;99.90
14057;DHT22;7103;54.300;10.180;2023-06-14T07:35:08;28.40;99.90
14057;DHT22;7103;54.300;10.180;2023-06-14T07:37:35;27.70;99.90
14057;DHT22;7103;54.300;10.180;2023-06-14T07:40:03;27.40;99.90
14057;DHT22;7103;54.300;10.180;2023-06-14T07:42:34;27.40;99.90
14057;DHT22;7103;54.300;10.180;2023-06-14T07:45:03;28.00;99.90
14057;DHT22;7103;54.300;10.180;2023-06-14T07:47:30;28.30;99.90
14057;DHT22;7103;54.300;10.180;2023-06-14T07:49:58;28.30;99.90
14057;DHT22;7103;54.300;10.180;2023-06-14T07:52:24;28.50;99.90
14057;DHT22;7103;54.300;10.180;2023-06-14T07:54:52;28.70;99.90
14057;DHT22;7103;54.300;10.180;2023-06-14T07:57:19;28.50;99.90
14057;DHT22;7103;54.300;10.180;2023-06-14T07:59:47;28.50;99.90
14057;DHT22;7103;54.300;10.180;2023-06-14T08:02:14;28.60;99.90
14057;DHT22;7103;54.300;10.180;2023-06-14T08:04:41;28.90;99.90
14057;DHT22;7103;54.300;10.180;2023-06-14T08:07:09;28.90;99.90
14057;DHT22;7103;54.300;10.180;2023-06-14T08:09:36;28.50;99.90
14057;DHT22;7103;54.300;10.180;2023-06-14T08:12:06;28.70;99.90
14057;DHT22;7103;54.300;10.180;2023-06-14T08:14:36;29.00;99.90
14057;DHT22;7103;54.300;10.180;2023-06-14T08:17:03;29.40;99.90
14057;DHT22;7103;54.300;10.180;2023-06-14T08:19:30;29.30;99.90
14057;DHT22;7103;54.300;10.180;2023-06-14T08:21:57;29.20;99.90
14057;DHT22;7103;54.300;10.180;2023-06-14T08:24:24;29.40;99.90
14057;DHT22;7103;54.300;10.180;2023-06-14T08:26:55;29.40;99.90
14057;DHT22;7103;54.300;10.180;2023-06-14T08:29:23;29.00;99.90
14057;DHT22;7103;54.300;10.180;2023-06-14T08:31:50;28.80;99.90
14057;DHT22;7103;54.300;10.180;2023-06-14T08:34:16;28.50;99.90
14057;DHT22;7103;54.300;10.180;2023-06-14T08:36:44;28.90;99.90
14057;DHT22;7103;54.300;10.180;2023-06-14T08:39:11;28.90;99.90
14057;DHT22;7103;54.300;10.180;2023-06-14T08:41:38;28.70;99.90
14057;DHT22;7103;54.300;10.180;2023-06-14T08:44:05;28.40;99.90
14057;DHT22;7103;54.300;10.180;2023-06-14T08:46:34;28.40;99.90
14057;DHT22;7103;54.300;10.180;2023-06-14T08:49:02;28.60;99.90
14057;DHT22;7103;54.300;10.180;2023-06-14T08:51:32;29.00;99.90
14057;DHT22;7103;54.300;10.180;2023-06-14T08:54:04;29.00;99.90
14057;DHT22;7103;54.300;10.180;2023-06-14T08:56:31;29.30;99.90
14057;DHT22;7103;54.300;10.180;2023-06-14T08:59:00;28.80;99.90
14057;DHT22;7103;54.300;10.180;2023-06-14T09:01:37;28.70;99.90
14057;DHT22;7103;54.300;10.180;2023-06-14T09:04:04;29.20;99.90
14057;DHT22;7103;54.300;10.180;2023-06-14T09:06:34;29.60;99.90
14057;DHT22;7103;54.300;10.180;2023-06-14T09:09:01;29.20;99.90
14057;DHT22;7103;54.300;10.180;2023-06-14T09:11:31;29.70;99.90
14057;DHT22;7103;54.300;10.180;2023-06-14T09:13:58;29.70;99.90
14057;DHT22;7103;54.300;10.180;2023-06-14T09:16:25;29.60;99.90
14057;DHT22;7103;54.300;10.180;2023-06-14T09:18:54;29.50;99.90
14057;DHT22;7103;54.300;10.180;2023-06-14T09:21:21;29.60;99.90
14057;DHT22;7103;54.300;10.180;2023-06-14T09:23:48;29.70;99.90
14057;DHT22;7103;54.300;10.180;2023-06-14T09:26:17;30.10;99.90
14057;DHT22;7103;54.300;10.180;2023-06-14T09:28:47;30.40;99.90
14057;DHT22;7103;54.300;10.180;2023-06-14T09:31:16;30.10;99.90
14057;DHT22;7103;54.300;10.180;2023-06-14T09:33:46;29.60;99.90
14057;DHT22;7103;54.300;10.180;2023-06-14T09:36:17;29.40;99.90
14057;DHT22;7103;54.300;10.180;2023-06-14T09:38:57;29.60;99.90
14057;DHT22;7103;54.300;10.180;2023-06-14T09:41:33;29.20;99.90
14057;DHT22;7103;54.300;10.180;2023-06-14T09:44:02;28.80;99.90
14057;DHT22;7103;54.300;10.180;2023-06-14T09:46:35;29.60;99.90
14057;DHT22;7103;54.300;10.180;2023-06-14T09:49:03;29.10;99.90
14057;DHT22;7103;54.300;10.180;2023-06-14T09:51:31;29.30;99.90
14057;DHT22;7103;54.300;10.180;2023-06-14T09:54:03;29.00;99.90
14057;DHT22;7103;54.300;10.180;2023-06-14T09:56:43;28.90;99.90
14057;DHT22;7103;54.300;10.180;2023-06-14T09:59:12;29.20;99.90
14057;DHT22;7103;54.300;10.180;2023-06-14T10:01:43;28.80;99.90
14057;DHT22;7103;54.300;10.180;2023-06-14T10:04:13;29.10;99.90
14057;DHT22;7103;54.300;10.180;2023-06-14T10:06:43;29.00;99.90
14057;DHT22;7103;54.300;10.180;2023-06-14T10:09:12;29.00;99.90
14057;DHT22;7103;54.300;10.180;2023-06-14T10:11:41;29.20;99.90
14057;DHT22;7103;54.300;10.180;2023-06-14T10:14:12;29.60;99.90
14057;DHT22;7103;54.300;10.180;2023-06-14T10:19:21;29.70;99.90
14057;DHT22;7103;54.300;10.180;2023-06-14T10:22:14;29.70;99.90
14057;DHT22;7103;54.300;10.180;2023-06-14T10:24:45;29.70;99.90
14057;DHT22;7103;54.300;10.180;2023-06-14T10:27:16;29.50;99.90
14057;DHT22;7103;54.300;10.180;2023-06-14T10:32:21;27.70;99.90
14057;DHT22;7103;54.300;10.180;2023-06-14T10:35:28;28.10;99.90
14057;DHT22;7103;54.300;10.180;2023-06-14T10:37:47;28.30;99.90
14057;DHT22;7103;54.300;10.180;2023-06-14T10:40:30;28.30;99.90
14057;DHT22;7103;54.300;10.180;2023-06-14T10:42:57;28.50;99.90
14057;DHT22;7103;54.300;10.180;2023-06-14T10:45:24;28.30;99.90
14057;DHT22;7103;54.300;10.180;2023-06-14T10:47:51;28.20;99.90
14057;DHT22;7103;54.300;10.180;2023-06-14T10:50:27;28.80;99.90
14057;DHT22;7103;54.300;10.180;2023-06-14T10:52:56;28.60;99.90
14057;DHT22;7103;54.300;10.180;2023-06-14T10:55:23;28.30;99.90
14057;DHT22;7103;54.300;10.180;2023-06-14T10:57:55;27.90;99.90
14057;DHT22;7103;54.300;10.180;2023-06-14T11:00:28;27.60;99.90
14057;DHT22;7103;54.300;10.180;2023-06-14T11:03:14;28.10;99.90
14057;DHT22;7103;54.300;10.180;2023-06-14T11:11:09;28.20;99.90
14057;DHT22;7103;54.300;10.180;2023-06-14T11:13:44;28.10;99.90
14057;DHT22;7103;54.300;10.180;2023-06-14T11:16:16;27.90;99.90
14057;DHT22;7103;54.300;10.180;2023-06-14T11:18:44;28.50;99.90
14057;DHT22;7103;54.300;10.180;2023-06-14T11:21:18;29.10;99.90
14057;DHT22;7103;54.300;10.180;2023-06-14T11:23:52;29.10;99.90
14057;DHT22;7103;54.300;10.180;2023-06-14T11:26:27;28.50;99.90
14057;DHT22;7103;54.300;10.180;2023-06-14T11:29:00;28.70;99.90
14057;DHT22;7103;54.300;10.180;2023-06-14T11:31:29;28.60;99.90
14057;DHT22;7103;54.300;10.180;2023-06-14T11:33:58;28.50;99.90
14057;DHT22;7103;54.300;10.180;2023-06-14T11:36:29;28.00;99.90
14057;DHT22;7103;54.300;10.180;2023-06-14T11:38:59;27.80;99.90
14057;DHT22;7103;54.300;10.180;2023-06-14T11:41:44;27.80;99.90
14057;DHT22;7103;54.300;10.180;2023-06-14T11:44:12;28.10;99.90
14057;DHT22;7103;54.300;10.180;2023-06-14T11:46:40;28.20;99.90
14057;DHT22;7103;54.300;10.180;2023-06-14T11:49:07;28.10;99.90
14057;DHT22;7103;54.300;10.180;2023-06-14T11:51:36;27.50;99.90
14057;DHT22;7103;54.300;10.180;2023-06-14T11:54:04;27.50;99.90
14057;DHT22;7103;54.300;10.180;2023-06-14T11:56:32;27.70;99.90
14057;DHT22;7103;54.300;10.180;2023-06-14T11:58:59;28.10;99.90
14057;DHT22;7103;54.300;10.180;2023-06-14T12:01:29;27.60;99.90
14057;DHT22;7103;54.300;10.180;2023-06-14T12:03:56;27.60;99.90
14057;DHT22;7103;54.300;10.180;2023-06-14T12:06:27;27.30;99.90
14057;DHT22;7103;54.300;10.180;2023-06-14T12:09:04;27.60;99.90
14057;DHT22;7103;54.300;10.180;2023-06-14T12:11:35;28.00;99.90
14057;DHT22;7103;54.300;10.180;2023-06-14T12:14:05;28.10;99.90
14057;DHT22;7103;54.300;10.180;2023-06-14T12:16:38;28.30;99.90
14057;DHT22;7103;54.300;10.180;2023-06-14T12:19:13;28.20;99.90
14057;DHT22;7103;54.300;10.180;2023-06-14T12:21:41;28.10;99.90
14057;DHT22;7103;54.300;10.180;2023-06-14T12:24:08;28.10;99.90
14057;DHT22;7103;54.300;10.180;2023-06-14T12:26:40;28.20;99.90
14057;DHT22;7103;54.300;10.180;2023-06-14T12:29:10;28.50;99.90
14057;DHT22;7103;54.300;10.180;2023-06-14T12:31:40;28.70;99.90
14057;DHT22;7103;54.300;10.180;2023-06-14T12:34:07;28.40;99.90
14057;DHT22;7103;54.300;10.180;2023-06-14T12:36:34;28.60;99.90
14057;DHT22;7103;54.300;10.180;2023-06-14T12:39:07;28.80;99.90
14057;DHT22;7103;54.300;10.180;2023-06-14T12:41:35;29.10;99.90
14057;DHT22;7103;54.300;10.180;2023-06-14T12:44:03;28.70;99.90
14057;DHT22;7103;54.300;10.180;2023-06-14T12:46:31;28.50;99.90
14057;DHT22;7103;54.300;10.180;2023-06-14T12:48:58;28.20;99.90
14057;DHT22;7103;54.300;10.180;2023-06-14T12:51:25;28.10;99.90
14057;DHT22;7103;54.300;10.180;2023-06-14T12:53:53;28.30;99.90
14057;DHT22;7103;54.300;10.180;2023-06-14T12:56:20;27.80;99.90
14057;DHT22;7103;54.300;10.180;2023-06-14T12:58:50;27.40;99.90
14057;DHT22;7103;54.300;10.180;2023-06-14T13:01:18;27.60;99.90
14057;DHT22;7103;54.300;10.180;2023-06-14T13:03:46;27.60;99.90
14057;DHT22;7103;54.300;10.180;2023-06-14T13:06:14;27.70;99.90
14057;DHT22;7103;54.300;10.180;2023-06-14T13:08:40;27.80;99.90
14057;DHT22;7103;54.300;10.180;2023-06-14T13:11:07;27.50;99.90
14057;DHT22;7103;54.300;10.180;2023-06-14T13:13:34;27.20;99.90
14057;DHT22;7103;54.300;10.180;2023-06-14T13:16:02;27.20;99.90
14057;DHT22;7103;54.300;10.180;2023-06-14T13:18:29;27.10;99.90
14057;DHT22;7103;54.300;10.180;2023-06-14T13:20:56;27.30;99.90
14057;DHT22;7103;54.300;10.180;2023-06-14T13:23:23;27.20;99.90
14057;DHT22;7103;54.300;10.180;2023-06-14T13:25:50;27.20;99.90
14057;DHT22;7103;54.300;10.180;2023-06-14T13:28:17;27.50;99.90
14057;DHT22;7103;54.300;10.180;2023-06-14T13:30:44;27.30;99.90
14057;DHT22;7103;54.300;10.180;2023-06-14T13:33:12;27.20;99.90
14057;DHT22;7103;54.300;10.180;2023-06-14T13:35:39;27.50;99.90
14057;DHT22;7103;54.300;10.180;2023-06-14T13:38:07;27.30;99.90
14057;DHT22;7103;54.300;10.180;2023-06-14T13:40:35;27.30;99.90
14057;DHT22;7103;54.300;10.180;2023-06-14T13:43:02;26.70;99.90
14057;DHT22;7103;54.300;10.180;2023-06-14T13:45:29;26.30;99.90
14057;DHT22;7103;54.300;10.180;2023-06-14T13:48:13;26.20;99.90
14057;DHT22;7103;54.300;10.180;2023-06-14T13:51:00;26.50;99.90
14057;DHT22;7103;54.300;10.180;2023-06-14T13:53:47;26.10;99.90
14057;DHT22;7103;54.300;10.180;2023-06-14T13:56:31;26.50;99.90
14057;DHT22;7103;54.300;10.180;2023-06-14T13:59:16;26.60;99.90
14057;DHT22;7103;54.300;10.180;2023-06-14T14:02:01;26.70;99.90
14057;DHT22;7103;54.300;10.180;2023-06-14T14:04:46;26.80;99.90
14057;DHT22;7103;54.300;10.180;2023-06-14T14:07:37;26.20;99.90
14057;DHT22;7103;54.300;10.180;2023-06-14T14:10:23;26.20;99.90
14057;DHT22;7103;54.300;10.180;2023-06-14T14:13:09;26.40;99.90
14057;DHT22;7103;54.300;10.180;2023-06-14T14:15:53;26.60;99.90
14057;DHT22;7103;54.300;10.180;2023-06-14T14:18:38;26.90;99.90
14057;DHT22;7103;54.300;10.180;2023-06-14T14:21:23;27.10;99.90
14057;DHT22;7103;54.300;10.180;2023-06-14T14:24:07;26.90;99.90
14057;DHT22;7103;54.300;10.180;2023-06-14T14:26:51;26.90;99.90
14057;DHT22;7103;54.300;10.180;2023-06-14T14:29:37;27.00;99.90
14057;DHT22;7103;54.300;10.180;2023-06-14T14:32:05;26.90;99.90
14057;DHT22;7103;54.300;10.180;2023-06-14T14:34:32;26.80;99.90
14057;DHT22;7103;54.300;10.180;2023-06-14T14:36:59;26.30;99.90
14057;DHT22;7103;54.300;10.180;2023-06-14T14:39:26;26.50;99.90
14057;DHT22;7103;54.300;10.180;2023-06-14T14:41:53;26.30;99.90
14057;DHT22;7103;54.300;10.180;2023-06-14T14:44:20;26.10;99.90
14057;DHT22;7103;54.300;10.180;2023-06-14T14:46:47;26.20;99.90
14057;DHT22;7103;54.300;10.180;2023-06-14T14:49:14;26.20;99.90
14057;DHT22;7103;54.300;10.180;2023-06-14T14:51:41;25.90;99.90
14057;DHT22;7103;54.300;10.180;2023-06-14T14:54:08;25.80;99.90
14057;DHT22;7103;54.300;10.180;2023-06-14T14:56:35;25.60;99.90
14057;DHT22;7103;54.300;10.180;2023-06-14T14:59:02;25.50;99.90
14057;DHT22;7103;54.300;10.180;2023-06-14T15:01:29;25.60;99.90
14057;DHT22;7103;54.300;10.180;2023-06-14T15:03:56;25.80;99.90
14057;DHT22;7103;54.300;10.180;2023-06-14T15:06:26;26.00;99.90
14057;DHT22;7103;54.300;10.180;2023-06-14T15:08:54;25.90;99.90
14057;DHT22;7103;54.300;10.180;2023-06-14T15:11:21;26.00;99.90
14057;DHT22;7103;54.300;10.180;2023-06-14T15:13:48;25.90;99.90
14057;DHT22;7103;54.300;10.180;2023-06-14T15:16:16;25.70;99.90
14057;DHT22;7103;54.300;10.180;2023-06-14T15:18:43;25.60;99.90
14057;DHT22;7103;54.300;10.180;2023-06-14T15:21:10;25.90;99.90
14057;DHT22;7103;54.300;10.180;2023-06-14T15:23:37;25.60;99.90
14057;DHT22;7103;54.300;10.180;2023-06-14T15:26:04;25.60;99.90
14057;DHT22;7103;54.300;10.180;2023-06-14T15:28:31;25.60;99.90
14057;DHT22;7103;54.300;10.180;2023-06-14T15:30:59;25.60;99.90
14057;DHT22;7103;54.300;10.180;2023-06-14T15:33:27;25.80;99.90
14057;DHT22;7103;54.300;10.180;2023-06-14T15:35:54;26.00;99.90
14057;DHT22;7103;54.300;10.180;2023-06-14T15:38:21;25.90;99.90
14057;DHT22;7103;54.300;10.180;2023-06-14T15:40:51;25.30;99.90
14057;DHT22;7103;54.300;10.180;2023-06-14T15:43:18;25.00;99.90
14057;DHT22;7103;54.300;10.180;2023-06-14T15:45:45;25.00;99.90
14057;DHT22;7103;54.300;10.180;2023-06-14T15:48:12;25.10;99.90
14057;DHT22;7103;54.300;10.180;2023-06-14T15:50:39;25.30;99.90
14057;DHT22;7103;54.300;10.180;2023-06-14T15:53:06;24.60;99.90
14057;DHT22;7103;54.300;10.180;2023-06-14T15:55:33;24.80;99.90
14057;DHT22;7103;54.300;10.180;2023-06-14T15:58:00;24.90;99.90
14057;DHT22;7103;54.300;10.180;2023-06-14T16:00:27;25.10;99.90
14057;DHT22;7103;54.300;10.180;2023-06-14T16:02:54;25.10;99.90
14057;DHT22;7103;54.300;10.180;2023-06-14T16:05:21;24.90;99.90